Time;durP1;ratioP1;P1;durP2;ratioP2;P2;SDS_P1;SDS_P2;PMS_P1;PMS_P2;Temp;Humidity;BMP_temperature;BMP_pressure;BME280_temperature;BME280_humidity;BME280_pressure;Samples;Min_cycle;Max_cycle;Signal;HPM_P1;HPM_P2
2023/02/25 00:02:30;;;;;;;;;;;;;;;3.19;76.53;99624.53;1689508;85;20237;-83
2023/02/25 00:05:36;;;;;;;;;;;;;;;3.14;77.06;99621.42;1699161;83;20243;-82
2023/02/25 00:08:42;;;;;;;;;;;;;;;3.13;77.23;99614.31;1720735;83;20253;-83
2023/02/25 00:11:47;;;;;;;;;;;;;;;3.05;77.69;99604.23;1713365;83;20235;-83
2023/02/25 00:14:51;;;;;;;;;;;;;;;3.37;76.91;99608.41;1688292;83;20655;-84
2023/02/25 00:17:55;;;;;;;;;;;;;;;3.36;76.81;99603.16;1682574;84;20245;-83
2023/02/25 00:20:59;;;;;;;;;;;;;;;3.45;76.72;99597.72;1686052;83;20237;-83
2023/02/25 00:24:04;;;;;;;;;;;;;;;3.38;77.01;99597.09;1682172;85;20231;-83
2023/02/25 00:27:10;;;;;;;;;;;;;;;3.26;77.55;99587.83;1651938;83;20278;-83
2023/02/25 00:30:15;;;;;;;;;;;;;;;3.28;77.77;99585.81;1720375;83;20672;-82
2023/02/25 00:33:20;;;;;;;;;;;;;;;3.41;77.64;99584.14;1675819;83;20207;-83
2023/02/25 00:36:21;;;;;;;;;;;;;;;3.48;77.59;99579.86;1693504;83;20243;-84
2023/02/25 00:39:14;;;;;;;;;;;;;;;3.54;77.62;99575.70;1693632;83;20213;-83
2023/02/25 00:42:20;;;;;;;;;;;;;;;3.57;77.68;99577.59;1688904;83;20219;-83
2023/02/25 00:45:24;;;;;;;;;;;;;;;3.52;77.76;99576.34;1699233;83;20695;-83
2023/02/25 00:48:29;;;;;;;;;;;;;;;3.58;78.17;99558.19;1690898;85;20228;-83
2023/02/25 00:51:35;;;;;;;;;;;;;;;3.38;78.58;99553.34;1676746;85;20249;-83
2023/02/25 00:54:40;;;;;;;;;;;;;;;3.26;79.42;99550.49;1689261;85;20221;-82
2023/02/25 00:57:45;;;;;;;;;;;;;;;3.24;79.87;99545.72;1691235;85;20695;-82
2023/02/25 01:11:33;;;;;;;;;;;;;;;3.06;82.19;99527.59;1676416;85;20258;-84
2023/02/25 01:14:43;;;;;;;;;;;;;;;3.04;82.46;99517.92;1689131;85;20243;-83
2023/02/25 01:21:28;;;;;;;;;;;;;;;3.12;82.20;99510.44;1673285;85;20225;-83
2023/02/25 01:24:34;;;;;;;;;;;;;;;3.04;82.39;99499.00;1691321;85;20962;-82
2023/02/25 01:27:39;;;;;;;;;;;;;;;3.17;82.03;99503.58;1680272;85;20238;-82
2023/02/25 01:30:44;;;;;;;;;;;;;;;3.18;81.97;99498.52;1690954;85;20231;-82
2023/02/25 01:33:51;;;;;;;;;;;;;;;3.06;82.94;99491.63;1680670;85;20206;-82
2023/02/25 01:36:55;;;;;;;;;;;;;;;3.05;83.40;99485.84;1692676;85;20253;-81
2023/02/25 01:40:01;;;;;;;;;;;;;;;3.14;83.11;99482.75;1678844;85;20222;-81
2023/02/25 01:43:06;;;;;;;;;;;;;;;3.25;82.80;99469.91;1679323;85;20246;-81
2023/02/25 01:46:10;;;;;;;;;;;;;;;3.22;82.91;99478.81;1679160;85;20626;-81
2023/02/25 01:49:35;;;;;;;;;;;;;;;3.37;82.38;99468.34;1679118;85;20634;-81
2023/02/25 01:52:40;;;;;;;;;;;;;;;3.38;82.27;99472.74;1680450;85;20730;-81
2023/02/25 01:55:46;;;;;;;;;;;;;;;3.33;82.41;99454.27;1680436;85;21045;-81
2023/02/25 01:58:49;;;;;;;;;;;;;;;3.33;82.58;99467.28;1679004;85;20206;-81
2023/02/25 02:01:54;;;;;;;;;;;;;;;3.43;82.55;99463.17;1680441;85;20262;-80
2023/02/25 02:04:59;;;;;;;;;;;;;;;3.40;82.63;99466.70;1680119;85;20246;-82
2023/02/25 02:08:04;;;;;;;;;;;;;;;3.26;83.22;99477.52;1680322;83;20230;-82
2023/02/25 02:11:10;;;;;;;;;;;;;;;3.33;83.48;99463.73;1679133;85;20623;-80
2023/02/25 02:14:17;;;;;;;;;;;;;;;3.24;83.92;99457.38;1678764;85;20222;-81
2023/02/25 02:17:28;;;;;;;;;;;;;;;3.33;84.17;99453.77;1680641;85;20262;-81
2023/02/25 02:20:39;;;;;;;;;;;;;;;3.38;84.10;99457.88;1679012;85;20230;-82
2023/02/25 02:24:03;;;;;;;;;;;;;;;3.41;84.15;99462.99;1679800;85;20238;-80
2023/02/25 02:27:29;;;;;;;;;;;;;;;3.42;84.30;99461.48;1680011;85;20262;-81
2023/02/25 02:31:08;;;;;;;;;;;;;;;3.30;84.75;99455.45;1680030;85;20231;-81
2023/02/25 02:34:26;;;;;;;;;;;;;;;3.32;84.83;99456.12;1680613;85;20221;-80
2023/02/25 02:37:40;;;;;;;;;;;;;;;3.43;84.41;99455.06;1653914;85;20222;-81
2023/02/25 02:41:05;;;;;;;;;;;;;;;3.61;83.62;99456.45;1679738;85;20206;-80
2023/02/25 02:44:17;;;;;;;;;;;;;;;3.72;83.33;99458.95;1680323;85;20229;-81
2023/02/25 02:47:39;;;;;;;;;;;;;;;3.78;83.07;99458.33;1678494;85;20210;-81
2023/02/25 02:50:49;;;;;;;;;;;;;;;3.70;83.09;99446.06;1679339;85;20770;-81
2023/02/25 02:54:01;;;;;;;;;;;;;;;3.65;83.48;99445.68;1679644;85;20234;-81
2023/02/25 02:57:06;;;;;;;;;;;;;;;3.71;83.30;99436.94;1679944;85;21015;-80
2023/02/25 03:00:18;;;;;;;;;;;;;;;3.74;83.20;99435.30;1680623;85;20218;-81
2023/02/25 03:03:34;;;;;;;;;;;;;;;3.76;83.40;99426.51;1645376;87;20238;-81
2023/02/25 03:06:35;;;;;;;;;;;;;;;4.00;82.61;99425.91;1643613;87;20277;-80
2023/02/25 03:09:51;;;;;;;;;;;;;;;3.98;82.99;99416.23;1648361;85;20757;-81
2023/02/25 03:12:56;;;;;;;;;;;;;;;3.91;83.19;99426.00;1650463;87;20237;-80
2023/02/25 03:16:01;;;;;;;;;;;;;;;3.69;84.24;99422.73;1652021;87;20245;-82
2023/02/25 03:19:25;;;;;;;;;;;;;;;3.79;84.39;99418.09;1650631;87;20241;-81
2023/02/25 03:22:36;;;;;;;;;;;;;;;3.94;84.25;99411.63;1690013;85;20654;-82
2023/02/25 03:25:46;;;;;;;;;;;;;;;3.98;83.85;99418.44;1691847;85;20249;-81
2023/02/25 03:28:51;;;;;;;;;;;;;;;4.02;83.86;99410.86;1691407;85;20221;-81
2023/02/25 03:32:03;;;;;;;;;;;;;;;3.96;84.07;99406.94;1689528;85;20265;-81
2023/02/25 03:35:08;;;;;;;;;;;;;;;3.89;84.58;99404.99;1689288;85;20253;-79
2023/02/25 03:38:18;;;;;;;;;;;;;;;3.83;84.93;99397.84;1691426;85;20690;-82
2023/02/25 03:41:24;;;;;;;;;;;;;;;3.95;84.74;99390.84;1690438;85;20265;-81
2023/02/25 03:44:32;;;;;;;;;;;;;;;3.92;84.81;99393.37;1692178;85;20221;-81
2023/02/25 03:47:39;;;;;;;;;;;;;;;3.88;84.96;99391.13;1692071;85;20221;-82
2023/02/25 03:50:52;;;;;;;;;;;;;;;3.91;84.85;99389.48;1690519;85;20229;-80
2023/02/25 03:53:58;;;;;;;;;;;;;;;3.91;84.71;99381.36;1690627;84;20228;-81
2023/02/25 03:57:03;;;;;;;;;;;;;;;3.84;85.21;99373.84;1692061;85;20229;-81
2023/02/25 04:00:16;;;;;;;;;;;;;;;3.85;85.41;99366.06;1690548;85;20631;-81
2023/02/25 04:03:16;;;;;;;;;;;;;;;3.98;84.87;99359.41;1692119;85;20740;-82
2023/02/25 04:06:19;;;;;;;;;;;;;;;4.03;84.67;99358.44;1692245;85;20205;-81
2023/02/25 04:09:20;;;;;;;;;;;;;;;4.11;84.28;99359.86;1690881;83;20225;-82
2023/02/25 04:12:26;;;;;;;;;;;;;;;4.15;84.03;99359.05;1691163;85;20249;-81
2023/02/25 04:15:30;;;;;;;;;;;;;;;4.17;83.93;99357.86;1692115;85;20245;-80
2023/02/25 04:18:36;;;;;;;;;;;;;;;4.11;84.17;99355.80;1692167;85;20205;-80
2023/02/25 04:21:43;;;;;;;;;;;;;;;4.20;84.35;99346.73;1721612;83;20244;-81
2023/02/25 04:24:48;;;;;;;;;;;;;;;4.25;83.90;99348.45;1722565;83;20243;-81
2023/02/25 04:27:51;;;;;;;;;;;;;;;4.22;83.81;99349.27;1722764;83;20211;-82
2023/02/25 04:30:57;;;;;;;;;;;;;;;4.18;84.16;99342.47;1721810;83;20246;-81
2023/02/25 04:33:56;;;;;;;;;;;;;;;4.30;83.63;99339.34;1722668;83;20628;-81
2023/02/25 04:37:04;;;;;;;;;;;;;;;4.33;83.45;99336.84;1722702;83;20217;-81
2023/02/25 04:40:10;;;;;;;;;;;;;;;4.38;83.19;99328.23;1722705;83;20640;-81
2023/02/25 04:43:15;;;;;;;;;;;;;;;4.47;83.02;99347.55;1721115;83;20691;-81
2023/02/25 04:46:20;;;;;;;;;;;;;;;4.53;82.71;99341.52;1722723;83;20215;-80
2023/02/25 04:49:26;;;;;;;;;;;;;;;4.47;82.75;99332.66;1722613;83;20246;-80
2023/02/25 04:52:30;;;;;;;;;;;;;;;4.47;82.55;99331.30;1721814;83;20215;-80
2023/02/25 04:55:35;;;;;;;;;;;;;;;4.43;82.52;99332.66;1721688;83;20370;-81
2023/02/25 04:58:41;;;;;;;;;;;;;;;4.38;82.61;99333.14;1721110;83;20624;-81
2023/02/25 05:01:47;;;;;;;;;;;;;;;4.62;82.09;99328.36;1722438;83;20215;-80
2023/02/25 05:04:52;;;;;;;;;;;;;;;4.49;82.51;99323.88;1722693;83;20191;-82
2023/02/25 05:11:02;;;;;;;;;;;;;;;4.40;83.02;99327.05;1686941;85;20209;-81
2023/02/25 05:14:07;;;;;;;;;;;;;;;4.48;82.96;99318.13;1686600;85;20261;-80
2023/02/25 05:17:14;;;;;;;;;;;;;;;4.58;82.38;99316.14;1685774;85;20253;-81
2023/02/25 05:20:19;;;;;;;;;;;;;;;4.48;82.44;99311.36;1686056;85;20237;-81
2023/02/25 05:23:26;;;;;;;;;;;;;;;4.41;82.72;99321.13;1685213;85;20245;-80
2023/02/25 05:26:31;;;;;;;;;;;;;;;4.50;82.51;99309.33;1686408;85;21230;-81
2023/02/25 05:29:35;;;;;;;;;;;;;;;4.38;82.58;99314.70;1684741;85;20225;-80
2023/02/25 05:32:40;;;;;;;;;;;;;;;4.33;82.72;99324.66;1658194;86;20255;-81
2023/02/25 05:35:46;;;;;;;;;;;;;;;4.31;82.67;99315.31;1658831;86;20736;-80
2023/02/25 05:38:52;;;;;;;;;;;;;;;4.38;82.36;99311.98;1657959;86;20248;-81
2023/02/25 05:41:56;;;;;;;;;;;;;;;4.30;82.27;99305.50;1658615;86;20219;-81
2023/02/25 05:45:01;;;;;;;;;;;;;;;4.37;81.90;99308.41;1658891;86;21219;-81
2023/02/25 05:48:06;;;;;;;;;;;;;;;4.34;82.04;99309.59;1659397;86;20621;-81
2023/02/25 05:51:12;;;;;;;;;;;;;;;4.46;81.55;99309.30;1659118;86;20231;-80
2023/02/25 05:54:17;;;;;;;;;;;;;;;4.44;81.25;99313.53;1657760;86;20232;-80
2023/02/25 05:57:22;;;;;;;;;;;;;;;4.45;81.03;99302.20;1659179;86;20252;-80
2023/02/25 06:00:27;;;;;;;;;;;;;;;4.51;80.59;99298.83;1659025;86;20228;-81
2023/02/25 06:03:32;;;;;;;;;;;;;;;4.45;80.05;99295.42;1658440;86;20236;-81
2023/02/25 06:06:38;;;;;;;;;;;;;;;4.47;80.15;99293.39;1659159;86;20228;-80
2023/02/25 06:09:43;;;;;;;;;;;;;;;4.37;80.20;99289.45;1659747;85;20270;-80
2023/02/25 06:12:48;;;;;;;;;;;;;;;4.56;79.97;99297.36;1671914;86;20695;-81
2023/02/25 06:15:52;;;;;;;;;;;;;;;4.61;79.41;99287.36;1673362;86;20735;-80
2023/02/25 06:18:57;;;;;;;;;;;;;;;4.72;78.68;99287.08;1673411;86;20271;-81
2023/02/25 06:22:02;;;;;;;;;;;;;;;4.64;78.39;99286.20;1673555;86;20272;-80
2023/02/25 06:25:08;;;;;;;;;;;;;;;4.68;77.97;99286.22;1672614;86;20700;-81
2023/02/25 06:28:12;;;;;;;;;;;;;;;4.55;78.29;99281.25;1673429;86;20765;-80
2023/02/25 06:31:19;;;;;;;;;;;;;;;4.57;78.10;99282.80;1672191;84;20632;-80
2023/02/25 06:34:23;;;;;;;;;;;;;;;4.64;77.75;99267.23;1672095;86;20215;-81
2023/02/25 06:37:27;;;;;;;;;;;;;;;4.73;76.70;99281.16;1671776;86;20164;-81
2023/02/25 06:40:33;;;;;;;;;;;;;;;4.68;76.69;99272.16;1672646;86;20247;-81
2023/02/25 06:43:38;;;;;;;;;;;;;;;4.68;76.95;99276.23;1672684;86;20256;-80
2023/02/25 06:46:44;;;;;;;;;;;;;;;4.64;76.74;99270.79;1673298;86;21220;-80
2023/02/25 06:49:50;;;;;;;;;;;;;;;4.63;77.08;99269.10;1673134;86;20211;-80
2023/02/25 06:52:56;;;;;;;;;;;;;;;4.75;76.84;99262.38;1673229;86;20220;-81
2023/02/25 06:55:54;;;;;;;;;;;;;;;4.74;77.16;99270.66;1673387;86;20284;-80
2023/02/25 06:58:58;;;;;;;;;;;;;;;4.56;77.71;99266.69;1673369;86;20248;-81
2023/02/25 07:02:03;;;;;;;;;;;;;;;4.78;77.67;99254.42;1673500;86;20271;-80
2023/02/25 07:05:08;;;;;;;;;;;;;;;4.77;77.82;99251.38;1672092;86;20255;-81
2023/02/25 07:08:14;;;;;;;;;;;;;;;4.64;78.87;99253.19;1673259;86;20251;-80
2023/02/25 07:11:27;;;;;;;;;;;;;;;4.70;78.89;99241.69;1666145;85;20228;-79
2023/02/25 07:14:33;;;;;;;;;;;;;;;4.73;79.41;99249.49;1654509;87;20224;-80
2023/02/25 07:17:38;;;;;;;;;;;;;;;4.71;79.40;99235.28;1655911;87;20216;-80
2023/02/25 07:20:43;;;;;;;;;;;;;;;4.77;79.43;99229.19;1654634;87;20244;-81
2023/02/25 07:23:48;;;;;;;;;;;;;;;4.77;79.66;99224.28;1655526;87;20252;-81
2023/02/25 07:26:55;;;;;;;;;;;;;;;4.85;79.44;99231.92;1656068;87;20259;-82
2023/02/25 07:30:00;;;;;;;;;;;;;;;4.98;79.19;99223.29;1655539;85;20245;-81
2023/02/25 07:33:05;;;;;;;;;;;;;;;5.11;78.55;99221.45;1654495;87;20223;-81
2023/02/25 07:36:04;;;;;;;;;;;;;;;5.12;78.34;99223.98;1655863;87;20228;-82
2023/02/25 07:38:55;;;;;;;;;;;;;;;5.12;78.61;99219.92;1655974;87;20601;-80
2023/02/25 07:41:59;;;;;;;;;;;;;;;5.04;78.77;99217.22;1655952;87;20256;-81
2023/02/25 07:45:05;;;;;;;;;;;;;;;5.09;78.76;99231.63;1654614;87;20239;-80
2023/02/25 07:48:09;;;;;;;;;;;;;;;5.08;78.90;99225.37;1655898;87;20248;-81
2023/02/25 07:51:21;;;;;;;;;;;;;;;5.07;79.10;99217.38;1655952;87;20224;-80
2023/02/25 07:54:26;;;;;;;;;;;;;;;5.18;78.84;99215.72;1655325;87;20248;-80
2023/02/25 07:57:31;;;;;;;;;;;;;;;5.31;78.51;99216.03;1655994;87;20224;-81
2023/02/25 08:00:37;;;;;;;;;;;;;;;5.48;78.06;99217.41;1655161;87;20244;-80
2023/02/25 08:03:41;;;;;;;;;;;;;;;5.58;77.86;99216.72;1655218;87;20661;-80
2023/02/25 08:06:47;;;;;;;;;;;;;;;5.77;77.33;99209.56;1655452;87;20661;-81
2023/02/25 08:09:51;;;;;;;;;;;;;;;5.93;76.76;99211.94;1628572;88;20267;-81
2023/02/25 08:12:56;;;;;;;;;;;;;;;6.08;75.96;99211.58;1644936;87;20323;-81
2023/02/25 08:16:01;;;;;;;;;;;;;;;6.13;75.48;99201.03;1654483;86;20232;-81
2023/02/25 08:19:00;;;;;;;;;;;;;;;6.22;75.44;99196.43;1656647;85;20272;-81
2023/02/25 08:21:53;;;;;;;;;;;;;;;6.32;74.55;99196.55;1657331;85;20221;-81
2023/02/25 08:24:41;;;;;;;;;;;;;;;6.21;74.77;99193.35;1657512;85;20240;-81
2023/02/25 08:27:34;;;;;;;;;;;;;;;6.15;74.95;99193.03;1655564;85;20244;-80
2023/02/25 08:30:23;;;;;;;;;;;;;;;6.18;74.94;99193.73;1657683;85;20273;-81
2023/02/25 08:33:16;;;;;;;;;;;;;;;6.32;74.39;99195.19;1657848;85;20296;-81
2023/02/25 08:36:22;;;;;;;;;;;;;;;6.44;74.04;99196.99;1660384;85;20666;-81
2023/02/25 08:39:26;;;;;;;;;;;;;;;6.50;73.81;99188.67;1656954;85;20216;-80
2023/02/25 08:42:30;;;;;;;;;;;;;;;6.40;74.02;99197.88;1659263;85;20666;-82
2023/02/25 08:45:35;;;;;;;;;;;;;;;6.50;73.74;99194.95;1657147;85;20689;-81
2023/02/25 08:48:41;;;;;;;;;;;;;;;6.53;73.82;99191.02;1657990;85;20223;-81
2023/02/25 08:51:47;;;;;;;;;;;;;;;6.61;73.82;99184.19;1655679;86;20237;-81
2023/02/25 08:54:51;;;;;;;;;;;;;;;6.70;73.57;99188.55;1655387;86;20236;-81
2023/02/25 08:57:55;;;;;;;;;;;;;;;6.94;73.06;99180.75;1661888;85;20232;-81
2023/02/25 09:01:00;;;;;;;;;;;;;;;6.98;72.91;99182.60;1652393;86;20224;-80
2023/02/25 09:04:05;;;;;;;;;;;;;;;7.08;72.45;99176.41;1658457;85;20731;-81
2023/02/25 09:07:12;;;;;;;;;;;;;;;7.12;72.24;99165.50;1657730;86;20795;-81
2023/02/25 09:10:18;;;;;;;;;;;;;;;7.04;72.38;99171.84;1657199;85;20228;-81
2023/02/25 09:13:26;;;;;;;;;;;;;;;7.09;72.08;99166.70;1655912;85;20256;-81
2023/02/25 09:16:34;;;;;;;;;;;;;;;7.10;72.09;99152.58;1655461;85;20212;-80
2023/02/25 09:19:38;;;;;;;;;;;;;;;6.99;72.66;99148.42;1670627;85;20229;-81
2023/02/25 09:22:44;;;;;;;;;;;;;;;6.98;72.79;99148.63;1654177;85;20228;-81
2023/02/25 09:25:49;;;;;;;;;;;;;;;6.94;73.27;99136.41;1654585;85;20255;-81
2023/02/25 09:28:49;;;;;;;;;;;;;;;7.02;73.27;99128.20;1655075;85;20228;-82
2023/02/25 09:31:53;;;;;;;;;;;;;;;7.16;73.31;99124.68;1655032;85;20232;-81
2023/02/25 09:35:01;;;;;;;;;;;;;;;7.30;73.19;99117.59;1654578;85;20645;-82
2023/02/25 09:38:22;;;;;;;;;;;;;;;7.34;73.19;99096.64;1653656;87;20636;-80
2023/02/25 09:41:48;;;;;;;;;;;;;;;7.15;74.00;99094.41;1655678;87;20702;-80
2023/02/25 09:44:58;;;;;;;;;;;;;;;7.36;74.08;99090.48;1655046;85;20252;-80
2023/02/25 09:48:05;;;;;;;;;;;;;;;7.55;73.80;99079.57;1652239;85;20248;-80
2023/02/25 09:51:14;;;;;;;;;;;;;;;7.61;73.71;99072.02;1653300;85;20217;-81
2023/02/25 09:54:43;;;;;;;;;;;;;;;7.76;73.55;99062.48;1652517;85;20224;-80
2023/02/25 09:57:48;;;;;;;;;;;;;;;7.92;73.43;99055.48;1653741;86;20228;-81
2023/02/25 10:00:56;;;;;;;;;;;;;;;8.38;72.40;99055.23;1653268;87;20632;-81
2023/02/25 10:04:10;;;;;;;;;;;;;;;8.58;71.68;99053.24;1652109;85;20634;-79
2023/02/25 10:07:22;;;;;;;;;;;;;;;8.60;71.75;99045.70;1653444;87;20216;-81
2023/02/25 10:10:50;;;;;;;;;;;;;;;8.66;71.75;99037.61;1649820;85;20220;-80
2023/02/25 10:14:19;;;;;;;;;;;;;;;8.76;71.32;99037.28;1652758;85;20621;-80
2023/02/25 10:17:33;;;;;;;;;;;;;;;8.80;71.35;99024.95;1655076;86;20256;-81
2023/02/25 10:20:51;;;;;;;;;;;;;;;8.86;71.90;99021.42;1658059;86;20228;-79
2023/02/25 10:24:02;;;;;;;;;;;;;;;8.85;72.78;99021.62;1657352;86;20220;-80
2023/02/25 10:27:03;;;;;;;;;;;;;;;9.04;73.15;99011.41;1655860;86;20248;-80
2023/02/25 10:30:18;;;;;;;;;;;;;;;9.16;72.93;99009.80;1655999;85;20728;-80
2023/02/25 10:33:27;;;;;;;;;;;;;;;9.37;72.75;99008.06;1635475;86;20252;-80
2023/02/25 10:36:38;;;;;;;;;;;;;;;9.58;72.53;99003.88;1652855;86;20327;-81
2023/02/25 10:39:47;;;;;;;;;;;;;;;9.75;72.75;99004.92;1656711;86;20645;-81
2023/02/25 10:42:56;;;;;;;;;;;;;;;10.02;72.35;98993.06;1658666;86;20255;-81
2023/02/25 10:46:15;;;;;;;;;;;;;;;10.06;72.35;99001.14;1658122;86;20240;-81
2023/02/25 10:49:24;;;;;;;;;;;;;;;10.26;71.81;99005.36;1658153;86;20232;-81
2023/02/25 10:52:28;;;;;;;;;;;;;;;10.46;71.30;99007.61;1658867;86;20260;-82
2023/02/25 10:55:53;;;;;;;;;;;;;;;10.66;70.85;99003.53;1659441;86;20211;-81
2023/02/25 10:59:12;;;;;;;;;;;;;;;10.83;70.16;98994.94;1658235;86;20220;-80
2023/02/25 11:02:31;;;;;;;;;;;;;;;10.85;70.10;98985.45;1658497;86;20256;-81
2023/02/25 11:05:46;;;;;;;;;;;;;;;10.87;69.70;98985.23;1658181;86;20256;-80
2023/02/25 11:08:51;;;;;;;;;;;;;;;10.81;70.08;98973.23;1658453;86;20224;-81
2023/02/25 11:12:22;;;;;;;;;;;;;;;10.90;69.93;98971.98;1656714;86;20638;-80
2023/02/25 11:15:32;;;;;;;;;;;;;;;10.92;69.87;98978.63;1655905;86;20264;-80
2023/02/25 11:18:39;;;;;;;;;;;;;;;10.99;69.51;98976.72;1654394;87;20208;-80
2023/02/25 11:21:46;;;;;;;;;;;;;;;11.04;69.24;98960.50;1655011;87;20189;-81
2023/02/25 11:24:50;;;;;;;;;;;;;;;10.85;70.11;98956.73;1650219;87;20255;-81
2023/02/25 11:28:00;;;;;;;;;;;;;;;10.77;70.53;98950.09;1653284;87;20192;-81
2023/02/25 11:31:28;;;;;;;;;;;;;;;10.84;70.44;98952.84;1654052;85;20240;-81
2023/02/25 11:34:34;;;;;;;;;;;;;;;10.81;70.79;98945.89;1653791;87;20252;-81
2023/02/25 11:37:49;;;;;;;;;;;;;;;10.84;71.12;98940.01;1654640;87;20693;-81
2023/02/25 11:40:55;;;;;;;;;;;;;;;11.07;70.54;98937.36;1654719;87;20216;-82
2023/02/25 11:44:00;;;;;;;;;;;;;;;11.25;70.24;98925.22;1654948;87;20260;-81
2023/02/25 11:47:15;;;;;;;;;;;;;;;11.38;69.96;98927.90;1650768;87;20250;-81
2023/02/25 11:50:46;;;;;;;;;;;;;;;11.32;70.32;98926.03;1652590;87;20208;-81
2023/02/25 11:53:54;;;;;;;;;;;;;;;11.20;71.31;98919.55;1632274;87;20368;-80
2023/02/25 11:57:11;;;;;;;;;;;;;;;11.33;71.08;98926.34;1654455;87;20701;-80
2023/02/25 12:00:53;;;;;;;;;;;;;;;11.40;71.06;98921.70;1626009;87;21216;-81
2023/02/25 12:04:15;;;;;;;;;;;;;;;11.44;71.09;98922.12;1654524;87;20625;-81
2023/02/25 12:07:42;;;;;;;;;;;;;;;11.51;71.05;98918.81;1627115;87;20228;-82
2023/02/25 12:11:25;;;;;;;;;;;;;;;11.55;70.97;98919.23;1652683;87;20224;-81
2023/02/25 12:14:54;;;;;;;;;;;;;;;11.46;71.65;98917.25;1654043;86;20259;-81
2023/02/25 12:18:24;;;;;;;;;;;;;;;11.58;71.31;98910.06;1576601;91;20254;-81
2023/02/25 12:21:54;;;;;;;;;;;;;;;11.62;71.50;98904.47;1643964;87;20240;-81
2023/02/25 12:25:20;;;;;;;;;;;;;;;11.51;72.04;98903.22;1643986;87;20249;-81
2023/02/25 12:28:46;;;;;;;;;;;;;;;11.48;72.71;98906.95;1642446;87;20233;-81
2023/02/25 12:32:13;;;;;;;;;;;;;;;11.47;72.75;98896.48;1642185;86;20264;-82
2023/02/25 12:35:42;;;;;;;;;;;;;;;11.48;72.98;98884.51;1642778;87;20323;-81
2023/02/25 12:39:25;;;;;;;;;;;;;;;11.47;73.42;98884.70;1642130;87;20236;-81
2023/02/25 12:42:53;;;;;;;;;;;;;;;11.65;73.17;98878.52;1642205;87;20241;-81
2023/02/25 12:45:56;;;;;;;;;;;;;;;11.68;73.38;98887.69;1643820;87;20229;-81
2023/02/25 12:49:25;;;;;;;;;;;;;;;11.84;73.67;98885.83;1642609;87;20233;-79
2023/02/25 12:52:41;;;;;;;;;;;;;;;12.06;73.45;98886.34;1644060;87;20645;-81
2023/02/25 12:56:03;;;;;;;;;;;;;;;12.23;73.44;98876.54;1643182;87;20217;-81
2023/02/25 12:59:39;;;;;;;;;;;;;;;12.13;73.99;98884.38;1642652;87;20229;-81
2023/02/25 13:03:01;;;;;;;;;;;;;;;12.08;74.52;98883.38;1644031;87;20639;-82
2023/02/25 13:06:28;;;;;;;;;;;;;;;12.03;74.94;98881.29;1644011;87;20242;-82
2023/02/25 13:10:01;;;;;;;;;;;;;;;12.14;75.14;98864.66;1643839;87;20241;-81
2023/02/25 13:13:27;;;;;;;;;;;;;;;12.17;75.11;98862.86;1643874;87;20289;-82
2023/02/25 13:16:51;;;;;;;;;;;;;;;12.33;74.54;98853.23;1645192;85;20228;-80
2023/02/25 13:20:01;;;;;;;;;;;;;;;12.30;74.27;98844.11;1654239;87;20228;-81
2023/02/25 13:23:33;;;;;;;;;;;;;;;12.28;74.20;98841.06;1654481;87;20228;-81
2023/02/25 13:26:56;;;;;;;;;;;;;;;12.16;74.56;98831.88;1655109;87;20248;-80
2023/02/25 13:30:23;;;;;;;;;;;;;;;11.93;75.37;98841.20;1654119;85;21187;-80
2023/02/25 13:33:57;;;;;;;;;;;;;;;11.93;75.57;98847.52;1640330;87;20320;-81
2023/02/25 13:37:09;;;;;;;;;;;;;;;12.00;75.49;98846.97;1654343;87;20224;-81
2023/02/25 13:40:35;;;;;;;;;;;;;;;11.89;75.80;98834.48;1654134;87;20384;-81
2023/02/25 13:44:12;;;;;;;;;;;;;;;11.84;76.24;98828.30;1654069;87;20688;-81
2023/02/25 13:47:25;;;;;;;;;;;;;;;11.98;75.81;98819.45;1654347;87;20236;-81
2023/02/25 13:50:42;;;;;;;;;;;;;;;11.96;75.93;98810.10;1653054;87;20665;-80
2023/02/25 13:54:18;;;;;;;;;;;;;;;11.96;76.00;98808.73;1654292;87;20228;-82
2023/02/25 14:01:14;;;;;;;;;;;;;;;11.89;76.17;98818.05;1699141;84;20251;-81
2023/02/25 14:04:22;;;;;;;;;;;;;;;11.88;76.33;98815.00;1697686;84;20648;-81
2023/02/25 14:07:46;;;;;;;;;;;;;;;11.89;76.27;98814.77;1699232;84;20323;-81
2023/02/25 14:11:03;;;;;;;;;;;;;;;11.85;76.40;98811.33;1697762;84;20696;-82
2023/02/25 14:14:27;;;;;;;;;;;;;;;11.81;76.81;98815.03;1697865;84;20223;-82
2023/02/25 14:18:09;;;;;;;;;;;;;;;11.93;76.35;98806.95;1697375;84;20266;-82
2023/02/25 14:25:13;;;;;;;;;;;;;;;11.91;75.86;98800.88;1715996;83;20620;-82
2023/02/25 14:28:25;;;;;;;;;;;;;;;11.66;76.80;98800.23;1720075;83;20656;-80
2023/02/25 14:31:47;;;;;;;;;;;;;;;11.88;76.17;98795.83;1743886;82;20197;-80
2023/02/25 14:35:15;;;;;;;;;;;;;;;11.50;76.93;98798.03;1750441;82;20217;-82
2023/02/25 14:38:34;;;;;;;;;;;;;;;11.54;76.80;98793.80;1749589;82;20248;-80
2023/02/25 14:41:51;;;;;;;;;;;;;;;11.35;77.15;98790.11;1750465;82;20205;-81
2023/02/25 14:45:03;;;;;;;;;;;;;;;11.43;76.72;98793.97;1748984;82;20240;-81
2023/02/25 14:48:10;;;;;;;;;;;;;;;11.35;76.73;98787.38;1750417;82;20241;-80
2023/02/25 14:51:41;;;;;;;;;;;;;;;11.41;76.30;98793.86;1750662;82;20209;-80
2023/02/25 14:54:53;;;;;;;;;;;;;;;11.53;75.84;98793.50;1750538;82;20193;-80
2023/02/25 14:58:24;;;;;;;;;;;;;;;11.48;75.62;98800.16;1748997;82;20217;-80
2023/02/25 15:01:48;;;;;;;;;;;;;;;11.42;75.41;98792.80;1750708;82;20368;-82
2023/02/25 15:05:08;;;;;;;;;;;;;;;11.40;75.37;98790.29;1750566;82;20220;-80
2023/02/25 15:08:26;;;;;;;;;;;;;;;11.32;75.17;98794.64;1749781;82;20638;-81
2023/02/25 15:11:45;;;;;;;;;;;;;;;10.85;76.54;98799.45;1750816;82;20236;-81
2023/02/25 15:14:56;;;;;;;;;;;;;;;10.70;77.39;98792.86;1749372;82;20241;-81
2023/02/25 15:18:28;;;;;;;;;;;;;;;10.67;78.11;98789.70;1749090;82;20204;-81
2023/02/25 15:21:51;;;;;;;;;;;;;;;10.73;78.18;98793.81;1750563;82;20630;-81
2023/02/25 15:25:17;;;;;;;;;;;;;;;10.77;77.95;98777.80;1750494;81;20217;-81
2023/02/25 15:28:39;;;;;;;;;;;;;;;10.80;78.21;98776.00;1752998;82;20247;-82
2023/02/25 15:31:44;;;;;;;;;;;;;;;10.73;78.47;98769.73;1751116;82;20240;-79
2023/02/25 15:35:04;;;;;;;;;;;;;;;10.87;77.85;98769.13;1752528;82;20236;-81
2023/02/25 15:38:13;;;;;;;;;;;;;;;10.83;77.48;98763.28;1752183;82;20228;-81
2023/02/25 15:41:45;;;;;;;;;;;;;;;10.73;77.56;98754.16;1752435;82;20217;-81
2023/02/25 15:44:50;;;;;;;;;;;;;;;10.61;77.92;98766.80;1752442;82;20235;-81
2023/02/25 15:47:56;;;;;;;;;;;;;;;10.58;77.94;98757.64;1752724;82;20220;-82
2023/02/25 15:51:01;;;;;;;;;;;;;;;10.49;78.70;98764.39;1752507;82;20228;-81
2023/02/25 15:54:08;;;;;;;;;;;;;;;10.34;79.48;98766.53;1752112;82;20216;-82
2023/02/25 15:57:19;;;;;;;;;;;;;;;10.32;79.95;98764.02;1752916;82;20221;-81
2023/02/25 16:00:54;;;;;;;;;;;;;;;10.22;80.39;98774.52;1751942;82;20217;-80
2023/02/25 16:03:59;;;;;;;;;;;;;;;10.07;80.30;98780.20;1720518;83;20205;-80
2023/02/25 16:07:04;;;;;;;;;;;;;;;10.10;80.11;98783.86;1722078;83;20341;-81
2023/02/25 16:10:28;;;;;;;;;;;;;;;10.04;80.45;98782.50;1751419;82;20288;-80
2023/02/25 16:13:40;;;;;;;;;;;;;;;10.00;80.48;98782.08;1753076;82;20253;-81
2023/02/25 16:16:49;;;;;;;;;;;;;;;10.02;79.89;98783.22;1753174;82;20217;-80
2023/02/25 16:20:04;;;;;;;;;;;;;;;9.89;79.94;98777.25;1751587;82;20629;-82
2023/02/25 16:23:09;;;;;;;;;;;;;;;9.72;80.44;98783.09;1753169;82;20213;-82
2023/02/25 16:26:38;;;;;;;;;;;;;;;9.73;80.41;98784.77;1751111;81;20436;-82
2023/02/25 16:29:57;;;;;;;;;;;;;;;9.65;80.73;98792.34;1751611;82;20625;-82
2023/02/25 16:33:17;;;;;;;;;;;;;;;9.60;81.10;98779.84;1751078;82;20669;-82
2023/02/25 16:36:26;;;;;;;;;;;;;;;9.66;81.09;98787.19;1752362;82;20244;-82
2023/02/25 16:39:31;;;;;;;;;;;;;;;9.68;81.00;98780.98;1751729;82;20637;-82
2023/02/25 16:42:38;;;;;;;;;;;;;;;9.64;81.08;98780.55;1753161;82;20236;-82
2023/02/25 16:46:03;;;;;;;;;;;;;;;9.61;81.34;98782.88;1753111;82;20220;-81
2023/02/25 16:49:08;;;;;;;;;;;;;;;9.66;81.31;98774.91;1752476;82;20642;-82
2023/02/25 16:52:06;;;;;;;;;;;;;;;9.66;81.52;98779.84;1753305;82;20669;-82
2023/02/25 16:55:11;;;;;;;;;;;;;;;9.50;81.99;98775.28;1752007;82;20602;-82
2023/02/25 16:58:29;;;;;;;;;;;;;;;9.41;82.25;98778.72;1751578;82;20216;-82
2023/02/25 17:01:35;;;;;;;;;;;;;;;9.48;81.92;98780.43;1751855;82;20236;-82
2023/02/25 17:04:42;;;;;;;;;;;;;;;9.47;81.58;98776.03;1753128;82;21164;-81
2023/02/25 17:07:48;;;;;;;;;;;;;;;9.61;81.05;98776.06;1753185;82;20192;-82